Sweetwater River (73, 625) Station Data

Red Flag Warning: No
Fire Weather Zone: 250
SDGE Region: Mountain Empire
Lat/Lon: 32.832/-116.628

Observations

Time Wind Speed/Gust Temp(F) RH Fuel Moist Fuel Temp(F) Dewpt(F) Tmax(F) Tmin(F) Accum Precip 10-min Precip SL Press(mb)
4/26 2:40am 79 4 G 8 46° 75% - - 39° 48.6° 44.5° - - -
4/26 2:30am 75 5 G 9 47° 75% - - 39° 48.6° 44.5° - - -
4/26 2:20am 94 3 G 7 45° 80% - - 40° 48.6° 44.5° - - -
4/26 2:10am 90 3 G 8 45° 82% - - 40° 48.6° 44.5° - - -
4/26 2:00am 52 7 G 10 46° 80% - - 40° 48.6° 45.1° - - -
4/26 1:50am 64 6 G 8 46° 79% - - 40° 48.6° 45.7° - - -
4/26 1:40am 65 6 G 10 46° 80% - - 41° 48.6° 45.7° - - -
4/26 1:30am 68 6 G 10 47° 80% - - 41° 48.6° 45.7° - - -
4/26 1:20am 84 4 G 7 46° 81% - - 41° 48.6° 45.7° - - -
4/26 1:10am 74 5 G 7 47° 80% - - 41° 48.6° 46.3° - - -
4/26 1:00am 76 5 G 7 47° 81% - - 41° 48.6° 46.3° - - -
4/26 12:50am 83 4 G 6 47° 80% - - 42° 48.6° 46.7° - - -
4/26 12:40am 79 4 G 7 47° 81% - - 42° 48.6° 46.8° - - -
4/26 12:30am 85 4 G 7 48° 80% - - 42° 48.6° 46.9° - - -
4/26 12:20am 82 4 G 8 48° 81% - - 42° 48.6° 46.9° - - -
4/26 12:10am 98 4 G 7 48° 82% - - 43° 48.6° 46.9° - - -
4/26 12:00am 86 3 G 6 47° 85% - - 43° 57.7° 45.9° - - -
4/25 11:50pm 94 4 G 6 48° 84% - - 43° 57.7° 45.9° - - -
4/25 11:40pm 90 5 G 7 48° 85% - - 43° 57.7° 45.9° - - -
4/25 11:30pm 79 3 G 5 47° 88% - - 44° 57.7° 45.9° - - -
4/25 11:20pm 80 4 G 6 46° 89% - - 43° 57.7° 45.9° - - -
4/25 11:10pm 87 4 G 7 48° 87% - - 44° 57.7° 46° - - -
4/25 11:00pm 97 4 G 5 48° 87% - - 45° 57.7° 46° - - -
4/25 10:50pm 86 4 G 6 48° 88% - - 45° 57.7° 46° - - -
4/25 10:40pm 89 4 G 6 48° 88% - - 45° 57.7° 46° - - -
4/25 10:30pm 69 3 G 6 49° 89% - - 46° 57.7° 46° - - -
4/25 10:20pm 69 4 G 5 49° 89% - - 46° 57.7° 46° - - -
4/25 10:10pm 66 3 G 6 48° 90% - - 46° 57.7° 46° - - -
4/25 10:00pm 59 3 G 5 48° 90% - - 46° 57.7° 46° - - -
4/25 9:50pm 54 5 G 7 48° 91% - - 46° 57.7° 46° - - -
4/25 9:40pm 48 5 G 6 48° 91% - - 45° 57.7° 46° - - -
4/25 9:30pm 45 4 G 7 48° 90% - - 45° 57.7° 46° - - -
4/25 9:20pm 38 4 G 6 48° 90% - - 45° 57.7° 46° - - -
4/25 9:10pm 28 4 G 8 48° 89% - - 45° 57.7° 46° - - -
4/25 9:00pm 335 1 G 3 48° 88% - - 45° 57.7° 46° - - -
4/25 8:50pm 13 2 G 4 49° 87% - - 45° 57.7° 46° - - -
4/25 8:40pm 326 4 G 6 49° 87% - - 45° 57.7° 46° - - -
4/25 8:30pm 336 2 G 4 49° 87% - - 45° 57.7° 46° - - -
4/25 8:20pm 322 2 G 4 49° 86% - - 45° 57.7° 46° - - -
4/25 8:10pm 284 2 G 4 49° 85% - - 45° 57.7° 46° - - -
4/25 8:00pm 268 4 G 5 50° 84% - - 45° 57.7° 46° - - -
4/25 7:50pm 275 4 G 6 51° 83% - - 46° 57.7° 46° - - -
4/25 7:40pm 271 4 G 6 51° 83% - - 46° 57.7° 46° - - -
4/25 7:30pm 263 5 G 8 51° 83% - - 46° 57.7° 46° - - -
4/25 7:20pm 274 8 G 10 51° 84% - - 46° 57.7° 46° - - -
4/25 7:10pm 275 8 G 11 51° 84% - - 46° 57.7° 46° - - -
4/25 7:00pm 272 7 G 9 51° 86% - - 47° 57.7° 46° - - -
4/25 6:50pm 269 7 G 11 51° 87% - - 47° 57.7° 46° - - -
4/25 6:40pm 271 8 G 12 51° 87% - - 48° 57.7° 46° - - -
4/25 6:30pm 267 8 G 10 51° 88% - - 48° 57.7° 46° - - -
4/25 6:20pm 263 8 G 11 51° 88% - - 48° 57.7° 46° - - -
4/25 6:10pm 268 9 G 11 52° 88% - - 48° 57.7° 46° - - -
4/25 6:00pm 270 8 G 13 52° 88% - - 48° 57.7° 46° - - -
4/25 5:50pm 268 9 G 12 52° 87% - - 48° 57.7° 46° - - -
4/25 5:40pm 276 8 G 11 53° 85% - - 48° 57.7° 46° - - -
4/25 5:30pm 266 9 G 13 53° 84% - - 48° 57.7° 46° - - -
4/25 5:20pm 263 9 G 13 53° 83% - - 48° 57.7° 46° - - -
4/25 5:10pm 265 8 G 12 54° 81% - - 48° 57.7° 46° - - -
4/25 5:00pm 264 9 G 14 54° 80% - - 48° 57.7° 46° - - -
4/25 4:50pm 269 9 G 13 54° 80% - - 48° 57.7° 46° - - -
4/25 4:40pm 267 9 G 13 54° 81% - - 48° 57.7° 46° - - -
4/25 4:30pm 264 10 G 14 54° 82% - - 48° 57.7° 46° - - -
4/25 4:20pm 270 9 G 14 54° 82% - - 48° 57.7° 46° - - -
4/25 4:10pm 264 9 G 14 53° 82% - - 48° 57.7° 46° - - -
4/25 4:00pm 268 8 G 14 53° 82% - - 48° 57.7° 46° - - -
4/25 3:50pm 269 10 G 14 53° 82% - - 48° 57.7° 46° - - -
4/25 3:40pm 276 10 G 15 54° 82% - - 48° 57.7° 46° - - -
4/25 3:30pm 270 8 G 12 53° 82% - - 48° 57.7° 46° - - -
4/25 3:20pm 275 9 G 14 54° 80% - - 48° 57.7° 46° - - -
4/25 3:10pm 268 9 G 15 54° 77% - - 48° 57.7° 46° - - -
4/25 3:00pm 263 9 G 15 55° 76% - - 47° 57.7° 46° - - -
4/25 2:50pm 265 9 G 13 55° 74% - - 47° 57.7° 46° - - -
4/25 2:40pm 265 11 G 17 55° 72% - - 47° 57.7° 46° - - -
4/25 2:30pm 265 9 G 14 56° 69% - - 46° 57.7° 46° - - -
4/25 2:20pm 271 10 G 17 56° 68% - - 46° 57.7° 46° - - -
4/25 2:10pm 273 11 G 17 56° 69% - - 46° 57.7° 46° - - -
4/25 2:00pm 262 10 G 15 56° 71% - - 47° 57.6° 46° - - -
4/25 1:50pm 282 12 G 19 56° 68% - - 46° 57.6° 46° - - -
4/25 1:40pm 275 10 G 18 56° 67% - - 45° 57.2° 46° - - -
4/25 1:30pm 274 10 G 17 56° 66% - - 45° 57.2° 46° - - -
4/25 1:20pm 278 10 G 16 56° 65% - - 45° 57.2° 46° - - -
4/25 1:10pm 285 9 G 15 56° 66% - - 44° 56.7° 46° - - -
4/25 1:00pm 293 10 G 18 56° 65% - - 44° 56.7° 46° - - -
4/25 12:50pm 275 10 G 16 55° 68% - - 45° 56.5° 46° - - -
4/25 12:40pm 272 11 G 16 55° 68% - - 45° 56.5° 46° - - -
4/25 12:30pm 264 10 G 16 55° 65% - - 44° 56.5° 46° - - -
4/25 12:20pm 269 10 G 17 55° 64% - - 43° 56.5° 46° - - -
4/25 12:10pm 289 8 G 15 55° 65% - - 44° 56.5° 46° - - -
4/25 12:00pm 288 9 G 15 55° 65% - - 43° 55.9° 46° - - -
4/25 11:50am 310 9 G 17 55° 64% - - 43° 55.9° 46° - - -
4/25 11:40am 306 7 G 14 55° 64% - - 43° 55.9° 46° - - -
4/25 11:30am 316 10 G 20 55° 63% - - 42° 55.8° 46° - - -
4/25 11:20am 300 10 G 18 54° 66% - - 43° 55.5° 46° - - -
4/25 11:10am 287 11 G 17 53° 69% - - 43° 54° 46° - - -
4/25 11:00am 276 11 G 19 53° 74% - - 45° 53.6° 46° - - -
4/25 10:50am 268 8 G 15 52° 77% - - 45° 53.6° 46° - - -
4/25 10:40am 283 13 G 19 53° 71% - - 44° 53.6° 46° - - -
4/25 10:30am 284 11 G 18 53° 74% - - 45° 53.4° 46° - - -
4/25 10:20am 272 13 G 18 52° 79% - - 46° 53.2° 46° - - -
4/25 10:10am 273 11 G 17 52° 79% - - 45° 53.2° 46° - - -
4/25 10:00am 280 10 G 15 51° 79% - - 45° 53.2° 46° - - -
4/25 9:50am 291 8 G 15 52° 78% - - 45° 53.2° 46° - - -
4/25 9:40am 279 8 G 12 51° 81% - - 45° 52.2° 46° - - -
4/25 9:30am 269 8 G 12 51° 82% - - 45° 52.2° 46° - - -
4/25 9:20am 270 5 G 10 51° 79% - - 45° 52.2° 46° - - -
4/25 9:10am 290 4 G 6 50° 81% - - 45° 51.3° 46° - - -
4/25 9:00am 282 5 G 8 49° 85% - - 45° 50.2° 46° - - -
4/25 8:50am 265 4 G 8 49° 89% - - 46° 49.8° 46° - - -
4/25 8:40am 276 5 G 9 49° 91% - - 46° 49.6° 46° - - -
4/25 8:30am 268 5 G 8 49° 91% - - 46° 49.4° 46° - - -
4/25 8:20am 261 3 G 6 48° 93% - - 47° 49.3° 46° - - -
4/25 8:10am 272 3 G 6 48° 95% - - 47° 48.9° 46° - - -
4/25 8:00am 253 3 G 5 48° 96% - - 47° 48.9° 46° - - -
4/25 7:50am 191 3 G 6 48° 97% - - 47° 48.6° 46° - - -
4/25 7:40am 214 4 G 6 48° 98% - - 47° 48.3° 46° - - -
4/25 7:30am 223 4 G 8 47° 98% - - 47° 48.1° 46° - - -
4/25 7:20am 188 4 G 7 47° 98% - - 47° 47.8° 46° - - -
4/25 7:10am 221 4 G 8 47° 98% - - 47° 47.8° 46° - - -
4/25 7:00am 190 4 G 7 47° 98% - - 46° 47.7° 46° - - -
4/25 6:50am 210 4 G 7 47° 98% - - 46° 47.7° 46° - - -
4/25 6:40am 214 4 G 7 47° 98% - - 46° 47.7° 46° - - -
4/25 6:30am 193 5 G 7 47° 98% - - 46° 47.7° 46° - - -
4/25 6:20am 194 4 G 8 47° 98% - - 46° 47.7° 46° - - -
4/25 6:10am 191 4 G 7 47° 98% - - 46° 47.7° 46° - - -
4/25 6:00am 198 4 G 7 47° 98% - - 46° 47.7° 46° - - -
4/25 5:50am 201 5 G 8 47° 98% - - 46° 47.7° 46° - - -
4/25 5:40am 196 4 G 8 47° 98% - - 46° 47.7° 46° - - -
4/25 5:30am 192 4 G 7 46° 98% - - 46° 47.7° 46° - - -
4/25 5:20am 200 6 G 9 46° 98% - - 46° 47.7° 46° - - -
4/25 5:10am 193 5 G 8 46° 98% - - 46° 47.7° 46° - - -
4/25 5:00am 206 6 G 9 46° 98% - - 46° 47.7° 46° - - -
4/25 4:50am 207 5 G 9 47° 98% - - 46° 47.7° 46.2° - - -
4/25 4:40am 202 7 G 11 47° 98% - - 46° 47.7° 46.2° - - -
4/25 4:30am 198 7 G 11 47° 98% - - 46° 47.7° 46.2° - - -
4/25 4:20am 205 7 G 10 47° 98% - - 46° 47.7° 46.2° - - -
4/25 4:10am 194 7 G 11 47° 98% - - 46° 47.7° 46.2° - - -
4/25 4:00am 198 7 G 12 47° 98% - - 46° 47.7° 46.2° - - -
4/25 3:50am 193 6 G 13 47° 98% - - 46° 47.7° 46.2° - - -
4/25 3:40am 192 8 G 12 47° 98% - - 46° 47.7° 46.2° - - -
4/25 3:30am 186 7 G 13 47° 98% - - 46° 47.7° 46.2° - - -
4/25 3:20am 186 6 G 11 47° 98% - - 46° 47.7° 46.2° - - -
4/25 3:10am 190 6 G 10 47° 98% - - 46° 47.7° 46.2° - - -
4/25 3:00am 203 5 G 9 47° 98% - - 46° 47.7° 46.2° - - -
4/25 2:50am 210 8 G 12 47° 98% - - 46° 47.7° 46.2° - - -
4/25 2:40am 204 6 G 14 47° 97% - - 46° 47.7° 46.2° - - -
4/25 2:30am 223 6 G 10 47° 97% - - 46° 47.7° 46.2° - - -
4/25 2:20am 219 5 G 9 47° 97% - - 46° 47.7° 46.2° - - -
4/25 2:10am 222 7 G 11 47° 97% - - 46° 47.7° 46.2° - - -
4/25 2:00am 205 7 G 12 47° 97% - - 46° 47.7° 46.2° - - -
4/25 1:50am 194 6 G 10 47° 97% - - 46° 47.7° 46.2° - - -
4/25 1:40am 196 6 G 9 47° 97% - - 46° 47.7° 46.2° - - -
4/25 1:30am 197 6 G 9 47° 96% - - 46° 47.7° 46.2° - - -
4/25 1:20am 215 4 G 9 47° 96% - - 46° 47.7° 46.2° - - -
4/25 1:10am 209 4 G 11 47° 96% - - 46° 47.7° 46.2° - - -
4/25 1:00am 193 5 G 9 47° 95% - - 46° 47.7° 46.2° - - -
4/25 12:50am 195 4 G 8 47° 95% - - 46° 47.7° 46.2° - - -
4/25 12:40am 212 4 G 7 47° 95% - - 46° 47.6° 46.2° - - -
4/25 12:30am 222 3 G 6 47° 95% - - 46° 47.3° 46.2° - - -
4/25 12:20am 207 6 G 10 46° 96% - - 45° 47.1° 46.2° - - -
4/25 12:10am 233 7 G 12 46° 97% - - 46° 47.1° 46.2° - - -
4/25 12:00am 238 7 G 13 47° 97% - - 46° 61.6° 39° - - -
4/24 11:50pm 256 8 G 12 47° 96% - - 46° 61.6° 39° - - -
4/24 11:40pm 269 8 G 14 47° 96% - - 46° 61.6° 39° - - -
4/24 11:30pm 264 7 G 12 47° 95% - - 46° 61.6° 39° - - -
4/24 11:20pm 251 6 G 9 47° 95% - - 46° 61.6° 39° - - -
4/24 11:10pm 252 6 G 9 47° 95% - - 46° 61.6° 39° - - -
4/24 11:00pm 256 5 G 9 47° 95% - - 46° 61.6° 39° - - -
4/24 10:50pm 246 4 G 7 47° 95% - - 46° 61.6° 39° - - -
4/24 10:40pm 217 3 G 5 47° 95% - - 46° 61.6° 39° - - -
4/24 10:30pm 188 3 G 5 47° 94% - - 45° 61.6° 39° - - -
4/24 10:20pm 182 3 G 6 47° 94% - - 45° 61.6° 39° - - -
4/24 10:10pm 183 1 G 2 47° 94% - - 45° 61.6° 39° - - -
4/24 10:00pm 149 2 G 3 48° 93% - - 46° 61.6° 39° - - -
4/24 9:50pm 139 2 G 4 48° 92% - - 46° 61.6° 39° - - -
4/24 9:40pm 252 2 G 3 48° 93% - - 46° 61.6° 39° - - -
4/24 9:30pm 231 2 G 3 48° 94% - - 47° 61.6° 39° - - -
4/24 9:20pm 222 3 G 4 49° 95% - - 47° 61.6° 39° - - -
4/24 9:10pm 257 3 G 6 49° 95% - - 47° 61.6° 39° - - -
4/24 9:00pm 254 4 G 6 49° 94% - - 47° 61.6° 39° - - -
4/24 8:50pm 260 4 G 5 49° 91% - - 47° 61.6° 39° - - -
4/24 8:40pm 245 2 G 4 50° 90% - - 47° 61.6° 39° - - -
4/24 8:30pm 260 2 G 3 50° 89% - - 47° 61.6° 39° - - -
4/24 8:20pm 258 3 G 4 50° 89% - - 47° 61.6° 39° - - -
4/24 8:10pm 277 3 G 5 50° 90% - - 48° 61.6° 39° - - -
4/24 8:00pm 289 3 G 6 50° 91% - - 48° 61.6° 39° - - -
4/24 7:50pm 272 4 G 6 51° 92% - - 48° 61.6° 39° - - -
4/24 7:40pm 258 4 G 5 51° 92% - - 49° 61.6° 39° - - -
4/24 7:30pm 258 4 G 6 51° 91% - - 48° 61.6° 39° - - -
4/24 7:20pm 255 5 G 7 51° 92% - - 49° 61.6° 39° - - -
4/24 7:10pm 271 6 G 8 52° 91% - - 49° 61.6° 39° - - -
4/24 7:00pm 269 6 G 9 52° 89% - - 49° 61.6° 39° - - -
4/24 6:50pm 269 7 G 8 53° 88% - - 49° 61.6° 39° - - -
4/24 6:40pm 263 6 G 8 53° 85% - - 49° 61.6° 39° - - -
4/24 6:30pm 268 7 G 9 53° 84% - - 49° 61.6° 39° - - -
4/24 6:20pm 258 6 G 9 54° 80% - - 48° 61.6° 39° - - -
4/24 6:10pm 279 6 G 10 55° 77% - - 48° 61.6° 39° - - -
4/24 6:00pm 272 7 G 10 55° 76% - - 48° 61.6° 39° - - -